Time;durP1;ratioP1;P1;durP2;ratioP2;P2;SDS_P1;SDS_P2;PMS_P1;PMS_P2;Temp;Humidity;BMP_temperature;BMP_pressure;BME280_temperature;BME280_humidity;BME280_pressure;Samples;Min_cycle;Max_cycle;Signal;HPM_P1;HPM_P2
2023/02/09 00:00:08;;;;;;;17.83;8.30;;;;;;;-3.53;64.09;94119.03;6214792;23;20013;-78
2023/02/09 00:02:42;;;;;;;18.50;8.30;;;;;;;-3.47;63.97;94119.22;6218825;23;20556;-78
2023/02/09 00:05:09;;;;;;;23.40;9.48;;;;;;;-3.54;64.19;94122.56;6215193;23;20036;-78
2023/02/09 00:07:34;;;;;;;18.42;8.65;;;;;;;-3.59;64.08;94118.72;6214264;23;20036;-78
2023/02/09 00:10:00;;;;;;;17.60;9.15;;;;;;;-3.62;64.90;94116.50;6214246;23;20372;-78
2023/02/09 00:15:10;;;;;;;15.02;8.15;;;;;;;-3.46;64.90;94125.94;6214639;23;20012;-78
2023/02/09 00:17:36;;;;;;;11.57;5.85;;;;;;;-3.46;63.67;94117.47;6214207;23;20055;-78
2023/02/09 00:20:06;;;;;;;19.90;9.82;;;;;;;-3.48;63.72;94116.81;6214165;23;20043;-78
2023/02/09 00:22:32;;;;;;;22.35;9.48;;;;;;;-3.58;63.18;94120.34;6214090;23;20013;-78
2023/02/09 00:24:57;;;;;;;18.90;9.48;;;;;;;-3.65;63.85;94121.91;6214020;23;20019;-78
2023/02/09 00:27:23;;;;;;;19.17;7.57;;;;;;;-3.56;64.32;94128.66;6187466;23;20070;-78
2023/02/09 00:29:49;;;;;;;15.50;8.05;;;;;;;-3.64;64.15;94128.66;6213931;23;20432;-78
2023/02/09 00:32:16;;;;;;;19.17;8.75;;;;;;;-3.56;64.57;94132.97;6188877;23;20100;-78
2023/02/09 00:34:42;;;;;;;16.25;7.97;;;;;;;-3.60;64.45;94141.94;6187463;23;20004;-78
2023/02/09 00:37:08;;;;;;;19.13;8.38;;;;;;;-3.33;63.02;94133.16;6186854;23;20104;-78
2023/02/09 00:39:34;;;;;;;17.42;8.40;;;;;;;-3.52;62.65;94130.91;6188181;23;20004;-78
2023/02/09 00:42:05;;;;;;;15.00;7.53;;;;;;;-3.51;61.69;94129.94;6186665;23;20020;-78
2023/02/09 00:44:36;;;;;;;16.80;8.30;;;;;;;-3.59;62.34;94135.84;6187430;23;20329;-78
2023/02/09 00:47:02;;;;;;;10.20;6.30;;;;;;;-3.25;61.61;94130.56;6214386;23;20021;-78
2023/02/09 00:49:28;;;;;;;15.10;7.97;;;;;;;-3.53;62.57;94132.66;6162992;23;20336;-78
2023/02/09 00:51:54;;;;;;;17.35;7.50;;;;;;;-3.63;63.20;94132.00;6186914;23;20385;-78
2023/02/09 00:54:20;;;;;;;14.68;7.10;;;;;;;-3.67;62.02;94140.97;6213963;23;20030;-78
2023/02/09 00:56:46;;;;;;;11.48;6.10;;;;;;;-3.68;61.67;94139.38;6187895;23;20025;-78
2023/02/09 00:59:13;;;;;;;16.17;7.95;;;;;;;-3.66;61.26;94137.47;6214868;23;20005;-78
2023/02/09 01:01:39;;;;;;;15.07;6.95;;;;;;;-3.71;61.81;94140.50;6188105;23;20099;-78
2023/02/09 01:04:05;;;;;;;15.85;7.57;;;;;;;-3.75;62.09;94134.09;6213795;23;20448;-78
2023/02/09 01:06:30;;;;;;;15.82;7.80;;;;;;;-3.61;60.80;94136.00;6188269;23;20013;-78
2023/02/09 01:08:56;;;;;;;19.35;7.32;;;;;;;-3.68;61.27;94135.03;6187510;23;20458;-78
2023/02/09 01:11:26;;;;;;;17.98;8.20;;;;;;;-3.41;60.47;94135.72;6163643;23;20326;-78
2023/02/09 01:13:55;;;;;;;16.90;7.25;;;;;;;-3.57;61.13;94134.72;6213862;23;20008;-78
2023/02/09 01:16:22;;;;;;;12.25;6.60;;;;;;;-3.62;61.42;94131.84;6214045;23;20004;-78
2023/02/09 01:18:47;;;;;;;13.00;6.38;;;;;;;-3.62;60.94;94134.41;6187621;23;20019;-78
2023/02/09 01:21:16;;;;;;;13.10;6.78;;;;;;;-3.66;60.86;94135.69;6162533;23;20004;-78
2023/02/09 01:23:42;;;;;;;15.15;7.38;;;;;;;-3.63;61.30;94125.13;6186288;23;20453;-77
2023/02/09 01:26:09;;;;;;;12.23;5.90;;;;;;;-3.68;61.16;94129.94;6188413;23;20005;-78
2023/02/09 01:28:36;;;;;;;14.30;6.88;;;;;;;-3.68;59.73;94122.25;6187749;23;20040;-78
2023/02/09 01:31:03;;;;;;;12.60;5.53;;;;;;;-3.59;60.01;94123.06;6187738;23;20009;-79
2023/02/09 01:33:29;;;;;;;12.27;6.55;;;;;;;-3.69;59.54;94128.34;6164555;23;20012;-79
2023/02/09 01:36:02;;;;;;;10.30;5.45;;;;;;;-3.56;58.32;94122.72;6189054;23;20084;-79
2023/02/09 01:38:27;;;;;;;7.38;3.95;;;;;;;-3.63;58.24;94117.44;6216544;23;20016;-79
2023/02/09 01:40:53;;;;;;;14.57;6.20;;;;;;;-3.75;58.35;94117.94;6216130;23;20004;-78
2023/02/09 01:43:19;;;;;;;12.25;6.47;;;;;;;-3.88;59.84;94108.16;6217557;23;20094;-79
2023/02/09 01:45:53;;;;;;;14.63;5.28;;;;;;;-3.83;60.02;94111.03;6167118;23;20011;-79
2023/02/09 01:48:24;;;;;;;11.30;5.20;;;;;;;-3.77;59.05;94110.41;6218309;23;20058;-79
2023/02/09 01:50:56;;;;;;;7.78;3.92;;;;;;;-3.94;60.03;94108.78;6166362;23;20024;-79
2023/02/09 01:53:23;;;;;;;9.13;5.57;;;;;;;-3.97;59.86;94100.47;6218039;23;20038;-79
2023/02/09 01:55:53;;;;;;;10.05;5.53;;;;;;;-4.03;60.37;94106.22;6166341;23;20102;-79
2023/02/09 01:58:21;;;;;;;11.95;5.68;;;;;;;-4.04;61.02;94106.38;6190809;23;20428;-79
2023/02/09 02:00:48;;;;;;;16.95;5.68;;;;;;;-4.09;60.38;94106.84;6218172;23;19996;-79
2023/02/09 02:03:18;;;;;;;13.30;5.95;;;;;;;-4.08;60.74;94107.63;6217988;23;20602;-79
2023/02/09 02:05:48;;;;;;;13.57;5.82;;;;;;;-4.04;61.36;94103.81;6217884;23;20013;-79
2023/02/09 02:08:49;;;;;;;11.80;6.00;;;;;;;-3.98;60.73;94103.97;6191727;23;20039;-79
2023/02/09 02:11:16;;;;;;;10.63;5.55;;;;;;;-4.09;60.81;94091.50;6178836;23;20048;-79
2023/02/09 02:13:42;;;;;;;9.52;5.15;;;;;;;-4.11;60.93;94101.09;6191004;23;20075;-79
2023/02/09 02:16:28;;;;;;;10.95;5.20;;;;;;;-4.11;61.60;94101.09;6167546;23;20020;-79
2023/02/09 02:19:19;;;;;;;10.07;4.82;;;;;;;-4.10;60.84;94095.00;6190883;23;20009;-79
2023/02/09 02:22:43;;;;;;;8.15;3.53;;;;;;;-4.01;59.70;94086.41;6156312;23;20044;-79
2023/02/09 02:25:37;;;;;;;10.10;4.97;;;;;;;-4.07;59.87;94089.59;6118353;23;20012;-79
2023/02/09 02:28:30;;;;;;;8.50;4.38;;;;;;;-4.05;59.08;94077.44;6132530;23;20020;-79
2023/02/09 02:31:34;;;;;;;9.90;4.85;;;;;;;-4.04;58.84;94083.34;6217524;23;20009;-79
2023/02/09 02:34:05;;;;;;;8.63;5.07;;;;;;;-4.13;59.04;94079.19;6217968;23;20019;-79
2023/02/09 02:36:51;;;;;;;10.20;5.05;;;;;;;-4.22;60.04;94081.72;6217562;23;20055;-78
2023/02/09 02:39:25;;;;;;;9.73;5.10;;;;;;;-4.23;59.42;94071.66;6190439;23;20100;-78
2023/02/09 02:44:54;;;;;;;15.07;5.05;;;;;;;-4.15;59.34;94061.44;6190303;23;20012;-79
2023/02/09 02:47:22;;;;;;;8.82;4.75;;;;;;;-4.29;59.10;94057.72;6218170;23;20029;-78
2023/02/09 02:49:53;;;;;;;10.73;5.45;;;;;;;-4.32;59.64;94067.47;6217927;23;20079;-78
2023/02/09 02:52:19;;;;;;;9.63;5.00;;;;;;;-4.32;60.30;94060.59;6217215;23;20070;-79
2023/02/09 02:55:16;;;;;;;10.77;5.07;;;;;;;-4.35;60.91;94065.22;6216418;23;20371;-79
2023/02/09 02:57:46;;;;;;;9.68;4.82;;;;;;;-4.38;60.99;94063.00;6188593;23;20080;-79
2023/02/09 03:00:13;;;;;;;10.98;5.22;;;;;;;-4.41;60.97;94056.44;6191000;23;20063;-78
2023/02/09 03:02:46;;;;;;;11.10;5.40;;;;;;;-4.42;61.36;94063.28;6165001;23;19996;-79
2023/02/09 03:05:13;;;;;;;8.95;4.80;;;;;;;-4.46;62.03;94063.75;6218066;23;20089;-79
2023/02/09 03:07:38;;;;;;;10.00;5.45;;;;;;;-4.46;61.71;94054.34;6217568;23;20000;-79
2023/02/09 03:10:23;;;;;;;10.27;5.32;;;;;;;-4.41;61.96;94053.88;6165414;23;20016;-78
2023/02/09 03:13:14;;;;;;;11.10;5.28;;;;;;;-4.41;62.71;94053.88;6216270;23;20070;-79
2023/02/09 03:16:24;;;;;;;10.45;5.32;;;;;;;-4.44;62.68;94057.53;6216619;23;20015;-76
2023/02/09 03:19:05;;;;;;;7.20;4.50;;;;;;;-4.46;62.77;94054.34;6070434;23;20019;-76
2023/02/09 03:21:33;;;;;;;9.98;5.35;;;;;;;-4.47;62.60;94050.19;6211326;23;20047;-78
2023/02/09 03:24:05;;;;;;;10.63;5.40;;;;;;;-4.50;63.44;94047.94;6216816;23;20000;-79
2023/02/09 03:26:55;;;;;;;10.07;5.70;;;;;;;-4.50;63.21;94042.00;6217017;23;20087;-79
2023/02/09 03:29:22;;;;;;;11.48;5.15;;;;;;;-4.50;63.64;94042.84;6216804;23;20326;-79
2023/02/09 03:31:49;;;;;;;9.90;5.38;;;;;;;-4.50;63.33;94047.94;6216774;23;20389;-79
2023/02/09 03:34:16;;;;;;;11.60;5.43;;;;;;;-4.51;62.89;94046.31;6218225;23;20424;-79
2023/02/09 03:36:43;;;;;;;10.45;5.28;;;;;;;-4.54;62.83;94049.19;6217010;23;19996;-79
2023/02/09 03:39:09;;;;;;;11.65;5.68;;;;;;;-4.59;63.47;94048.88;6217717;23;20009;-79
2023/02/09 03:41:34;;;;;;;9.93;5.00;;;;;;;-4.57;63.53;94052.09;6165277;23;20000;-79
2023/02/09 03:46:44;;;;;;;12.75;5.65;;;;;;;-4.57;63.67;94041.03;6217576;23;20013;-78
2023/02/09 03:49:13;;;;;;;9.25;4.78;;;;;;;-4.63;64.17;94027.13;6190557;23;20086;-79
2023/02/09 03:51:40;;;;;;;11.07;5.43;;;;;;;-4.62;63.45;94037.19;6216983;23;20009;-79
2023/02/09 03:54:06;;;;;;;11.98;5.35;;;;;;;-4.59;63.87;94036.09;6166205;23;20004;-79
2023/02/09 03:56:31;;;;;;;11.00;5.38;;;;;;;-4.62;64.13;94023.63;6189841;23;20047;-79
2023/02/09 03:58:57;;;;;;;10.40;5.28;;;;;;;-4.64;63.66;94036.56;6215653;23;20004;-78
2023/02/09 04:01:22;;;;;;;11.05;5.00;;;;;;;-4.62;63.76;94034.63;6165292;23;20143;-79
2023/02/09 04:03:48;;;;;;;10.07;5.72;;;;;;;-4.63;63.07;94037.34;6216364;23;20008;-79
2023/02/09 04:06:14;;;;;;;8.70;3.80;;;;;;;-4.57;62.70;94036.75;6190651;23;20023;-79
2023/02/09 04:08:41;;;;;;;12.35;5.10;;;;;;;-4.62;62.52;94031.28;6189805;23;20004;-79
2023/02/09 04:11:08;;;;;;;9.85;4.82;;;;;;;-4.72;63.71;94028.06;6215729;23;20024;-79
2023/02/09 04:13:33;;;;;;;10.02;5.20;;;;;;;-4.70;63.18;94026.16;6216865;23;20048;-79
2023/02/09 04:15:59;;;;;;;11.73;4.82;;;;;;;-4.75;63.32;94023.25;6216337;23;20027;-78
2023/02/09 04:18:25;;;;;;;10.63;5.10;;;;;;;-4.78;62.89;94024.38;6215631;23;20278;-79
2023/02/09 04:20:51;;;;;;;10.20;5.05;;;;;;;-4.76;63.65;94021.66;6215007;23;20071;-78
2023/02/09 04:23:16;;;;;;;9.20;5.30;;;;;;;-4.79;63.91;94024.53;6215909;23;20016;-78
2023/02/09 04:25:42;;;;;;;9.60;4.60;;;;;;;-4.83;63.75;94027.38;6217173;23;20070;-79
2023/02/09 04:28:08;;;;;;;9.70;4.53;;;;;;;-4.85;63.64;94019.06;6216001;23;20437;-78
2023/02/09 04:30:34;;;;;;;8.90;4.90;;;;;;;-4.84;64.01;94020.69;6214411;23;20074;-78
2023/02/09 04:32:59;;;;;;;12.95;5.28;;;;;;;-4.84;63.73;94019.88;6164288;23;20019;-79
2023/02/09 04:35:25;;;;;;;11.15;5.00;;;;;;;-4.87;64.10;94015.88;6216925;23;20016;-79
2023/02/09 04:37:51;;;;;;;9.05;5.13;;;;;;;-4.51;62.17;94020.75;6165305;23;20004;-79
2023/02/09 04:40:16;;;;;;;10.85;4.88;;;;;;;-4.70;63.33;94023.59;6215948;23;20500;-79
2023/02/09 04:42:45;;;;;;;8.32;4.75;;;;;;;-4.78;63.95;94014.16;6217388;23;20062;-79
2023/02/09 04:45:12;;;;;;;10.02;5.47;;;;;;;-4.79;63.18;94016.88;6216284;23;20070;-77
2023/02/09 04:47:37;;;;;;;12.00;5.57;;;;;;;-4.85;63.41;94016.50;6217046;23;20015;-79
2023/02/09 04:50:03;;;;;;;9.48;4.75;;;;;;;-4.89;63.37;94028.00;6164308;23;20349;-77
2023/02/09 04:52:29;;;;;;;10.32;5.70;;;;;;;-4.90;63.48;94026.41;6187963;23;20007;-79
2023/02/09 04:54:55;;;;;;;10.70;4.85;;;;;;;-4.89;63.58;94028.00;6188927;23;20074;-79
2023/02/09 05:00:05;;;;;;;10.20;4.97;;;;;;;-4.94;64.11;94027.66;6168833;23;20343;-78
2023/02/09 05:02:30;;;;;;;9.98;5.18;;;;;;;-4.88;63.79;94021.94;6191299;23;20205;-79
2023/02/09 05:04:56;;;;;;;9.00;4.78;;;;;;;-4.91;63.44;94019.72;6216758;23;20016;-79
2023/02/09 05:07:22;;;;;;;10.82;5.05;;;;;;;-4.93;63.05;94021.63;6218010;23;20004;-79
2023/02/09 05:09:47;;;;;;;12.82;5.20;;;;;;;-4.93;63.72;94016.50;6214460;23;20021;-77
2023/02/09 05:12:13;;;;;;;11.05;5.45;;;;;;;-4.97;63.98;94025.44;6214580;23;20089;-79
2023/02/09 05:14:39;;;;;;;10.02;5.03;;;;;;;-5.00;64.09;94023.16;6189375;23;20044;-79
2023/02/09 05:17:04;;;;;;;8.25;4.28;;;;;;;-4.99;63.74;94027.34;6216111;23;20011;-80
2023/02/09 05:24:56;;;;;;;11.00;5.28;;;;;;;-5.12;64.00;94009.88;6205756;23;20505;-87
2023/02/09 05:27:22;;;;;;;9.88;5.18;;;;;;;-5.15;64.54;94002.53;6183497;23;20106;-90
2023/02/09 05:29:47;;;;;;;10.40;4.90;;;;;;;-5.30;64.44;93979.31;6181820;23;20076;-89
2023/02/09 05:32:13;;;;;;;13.27;5.82;;;;;;;-5.26;64.72;93978.06;6185262;23;20515;-88
2023/02/09 05:34:40;;;;;;;9.40;4.82;;;;;;;-5.11;64.60;93997.91;6213594;23;20009;-89
2023/02/09 05:37:06;;;;;;;13.68;5.55;;;;;;;-5.04;63.53;94009.13;6213735;23;20100;-89
2023/02/09 05:39:33;;;;;;;12.40;5.45;;;;;;;-4.94;63.24;94024.31;6162048;23;20040;-89
2023/02/09 05:42:14;;;;;;;10.57;5.15;;;;;;;-4.90;63.72;94034.06;6185478;23;20016;-89
2023/02/09 05:44:48;;;;;;;11.13;5.30;;;;;;;-4.97;63.99;94020.31;6141092;23;20025;-89
2023/02/09 05:47:16;;;;;;;10.93;5.72;;;;;;;-4.91;63.74;94029.94;6184936;23;20481;-90
2023/02/09 05:49:42;;;;;;;10.73;5.50;;;;;;;-4.86;64.51;94032.03;6212297;23;20371;-88
2023/02/09 05:52:08;;;;;;;12.25;5.82;;;;;;;-4.89;63.56;94030.53;6164025;23;20040;-91
2023/02/09 05:54:34;;;;;;;12.38;5.72;;;;;;;-4.88;63.60;94039.81;6188626;23;20004;-90
2023/02/09 05:57:00;;;;;;;11.13;5.20;;;;;;;-5.07;63.28;94005.09;6163625;23;20498;-90
2023/02/09 05:59:26;;;;;;;10.95;5.30;;;;;;;-4.86;63.95;94039.69;6163284;23;20009;-90
2023/02/09 06:01:51;;;;;;;11.52;5.25;;;;;;;-4.96;63.34;94026.22;6188241;23;20186;-90
2023/02/09 06:04:17;;;;;;;8.70;5.07;;;;;;;-4.75;62.70;94029.19;6139146;23;20527;-90
2023/02/09 06:06:42;;;;;;;12.40;5.68;;;;;;;-4.93;63.07;94024.16;6163607;23;20040;-90
2023/02/09 06:09:08;;;;;;;11.80;6.72;;;;;;;-4.92;63.61;94037.72;6163641;23;20415;-90
2023/02/09 06:11:34;;;;;;;11.85;5.75;;;;;;;-4.91;63.52;94042.69;6163625;23;20021;-90
2023/02/09 06:14:00;;;;;;;11.10;5.03;;;;;;;-4.86;63.31;94042.25;6163894;23;20495;-90
2023/02/09 06:16:26;;;;;;;11.20;5.32;;;;;;;-5.07;64.03;94027.28;6163872;23;20090;-89
2023/02/09 06:18:52;;;;;;;15.20;5.70;;;;;;;-4.97;64.27;94035.66;6202896;22;20021;-90
2023/02/09 06:21:17;;;;;;;18.40;5.90;;;;;;;-4.93;64.52;94038.69;6216701;23;20013;-91
2023/02/09 06:23:43;;;;;;;14.20;5.65;;;;;;;-4.98;64.67;94038.34;6173884;23;20019;-92
2023/02/09 06:26:11;;;;;;;11.48;5.18;;;;;;;-5.03;64.14;94041.34;6242617;22;19997;-91
2023/02/09 06:28:40;;;;;;;11.93;6.07;;;;;;;-5.02;64.07;94040.41;6216002;23;20080;-91
2023/02/09 06:31:07;;;;;;;10.35;5.32;;;;;;;-5.02;63.33;94041.22;6227137;22;20490;-90
2023/02/09 06:33:34;;;;;;;10.23;5.50;;;;;;;-5.04;63.54;94043.13;6188567;23;20028;-90
2023/02/09 06:36:00;;;;;;;12.15;5.57;;;;;;;-5.04;63.34;94045.66;6163549;23;20427;-90
2023/02/09 06:38:26;;;;;;;11.68;5.97;;;;;;;-5.13;63.68;94038.94;6212992;23;20090;-89
2023/02/09 06:40:51;;;;;;;10.05;5.45;;;;;;;-5.07;64.74;94042.59;6212922;23;20055;-89
2023/02/09 06:43:17;;;;;;;6.55;3.83;;;;;;;-5.02;63.21;94033.56;6188482;23;20062;-90
2023/02/09 06:45:42;;;;;;;3.10;2.30;;;;;;;-4.84;63.04;94030.91;6188552;23;20343;-90
2023/02/09 06:48:09;;;;;;;11.70;5.45;;;;;;;-4.90;62.69;94043.50;6162665;23;20036;-90
2023/02/09 06:50:36;;;;;;;9.73;5.10;;;;;;;-4.96;63.03;94028.78;6213140;23;20013;-90
2023/02/09 06:53:02;;;;;;;10.40;5.10;;;;;;;-5.02;64.52;94042.97;6163551;23;20015;-92
2023/02/09 06:55:28;;;;;;;9.80;5.57;;;;;;;-5.01;64.16;94054.78;6214681;23;20016;-90
2023/02/09 06:57:54;;;;;;;15.68;6.15;;;;;;;-5.05;64.12;94054.28;6162635;23;20020;-91
2023/02/09 07:00:21;;;;;;;12.75;5.78;;;;;;;-5.04;64.87;94060.19;6214817;23;20019;-90
2023/02/09 07:02:46;;;;;;;13.00;5.38;;;;;;;-4.94;63.46;94062.63;6162870;23;20494;-90
2023/02/09 07:05:13;;;;;;;13.55;5.75;;;;;;;-4.93;64.24;94065.03;6187977;23;20048;-89
2023/02/09 07:07:40;;;;;;;10.38;5.63;;;;;;;-4.95;63.79;94059.28;6162926;23;20013;-90
2023/02/09 07:10:07;;;;;;;12.13;5.38;;;;;;;-4.73;62.90;94052.00;6212438;23;20324;-90
2023/02/09 07:12:33;;;;;;;10.20;5.75;;;;;;;-5.02;63.70;94027.66;6187886;23;20007;-90
2023/02/09 07:14:58;;;;;;;9.05;4.80;;;;;;;-4.90;63.28;94051.16;6212629;23;20024;-90
2023/02/09 07:17:24;;;;;;;12.18;5.90;;;;;;;-4.95;63.19;94064.38;6213976;23;20009;-90
2023/02/09 07:19:49;;;;;;;9.63;5.18;;;;;;;-5.06;63.67;94046.78;6213653;23;20375;-90
2023/02/09 07:22:15;;;;;;;13.20;5.97;;;;;;;-5.02;63.69;94060.84;6187538;23;20456;-90
2023/02/09 07:24:41;;;;;;;12.27;6.13;;;;;;;-4.91;64.39;94068.25;6187217;23;20016;-91
2023/02/09 07:27:06;;;;;;;10.80;5.78;;;;;;;-4.90;64.73;94072.38;6162615;23;20027;-90
2023/02/09 07:29:33;;;;;;;10.88;5.70;;;;;;;-4.85;64.48;94080.38;6187535;23;20309;-90
2023/02/09 07:31:59;;;;;;;10.60;6.03;;;;;;;-4.84;64.42;94061.56;6187369;23;20009;-90
2023/02/09 07:34:24;;;;;;;10.95;5.32;;;;;;;-4.74;63.70;94070.84;6187688;23;20419;-90
2023/02/09 07:36:50;;;;;;;11.60;5.35;;;;;;;-4.84;62.95;94056.47;6187382;23;20008;-90
2023/02/09 07:39:16;;;;;;;9.52;5.10;;;;;;;-4.81;63.11;94056.13;6211877;23;20107;-90
2023/02/09 07:41:41;;;;;;;10.98;5.65;;;;;;;-4.77;63.27;94063.47;6187154;23;20013;-89
2023/02/09 07:44:08;;;;;;;10.85;5.07;;;;;;;-4.69;63.08;94069.44;6162311;23;20035;-87
2023/02/09 07:46:34;;;;;;;10.48;5.68;;;;;;;-4.64;63.13;94067.22;6187376;23;20342;-90
2023/02/09 07:49:00;;;;;;;11.48;5.90;;;;;;;-4.73;63.29;94062.22;6212068;23;20051;-88
2023/02/09 07:51:29;;;;;;;10.27;4.15;;;;;;;-4.66;63.33;94053.81;6187374;23;20004;-90
2023/02/09 07:53:58;;;;;;;13.57;5.85;;;;;;;-4.59;62.71;94056.53;6212425;23;20020;-89
2023/02/09 07:56:33;;;;;;;12.45;5.90;;;;;;;-4.52;62.45;94085.63;6212115;23;20012;-88
2023/02/09 07:58:59;;;;;;;10.77;5.75;;;;;;;-4.56;62.70;94076.66;6187352;23;20455;-88
2023/02/09 08:01:27;;;;;;;11.45;5.65;;;;;;;-4.57;62.09;94052.09;6211718;23;20001;-88
2023/02/09 08:03:53;;;;;;;11.93;5.05;;;;;;;-4.74;62.16;94040.19;6212480;23;20497;-88
2023/02/09 08:06:31;;;;;;;12.50;5.60;;;;;;;-4.90;61.99;94026.41;6187873;23;20374;-90
2023/02/09 08:09:03;;;;;;;12.75;5.88;;;;;;;-4.95;63.07;94031.19;6212186;23;20020;-88
2023/02/09 08:11:35;;;;;;;13.57;6.15;;;;;;;-4.78;62.85;94059.34;6212352;23;20104;-89
2023/02/09 08:14:04;;;;;;;11.63;6.00;;;;;;;-4.86;63.25;94044.78;6212115;23;20386;-88
2023/02/09 08:16:33;;;;;;;13.30;5.63;;;;;;;-4.81;63.15;94045.91;6187373;23;20001;-89
2023/02/09 08:19:04;;;;;;;9.45;4.88;;;;;;;-4.46;62.50;94085.03;6187004;23;20074;-89
2023/02/09 08:21:37;;;;;;;10.65;5.50;;;;;;;-4.57;62.92;94075.09;6211717;23;20042;-89
2023/02/09 08:24:06;;;;;;;10.85;5.22;;;;;;;-4.96;62.48;94033.88;6213188;23;20017;-90
2023/02/09 08:26:36;;;;;;;12.75;5.25;;;;;;;-4.73;62.66;94073.25;6186846;23;20012;-88
2023/02/09 08:29:02;;;;;;;11.05;5.55;;;;;;;-4.89;63.90;94043.31;6187407;23;20087;-88
2023/02/09 08:31:28;;;;;;;12.30;5.80;;;;;;;-4.76;62.95;94040.34;6162348;23;20309;-91
2023/02/09 08:33:54;;;;;;;16.58;6.32;;;;;;;-4.59;62.12;94079.56;6138649;23;20032;-88
2023/02/09 08:36:22;;;;;;;9.25;4.88;;;;;;;-4.75;62.36;94038.59;6186849;23;20015;-89
2023/02/09 08:38:58;;;;;;;11.23;5.90;;;;;;;-4.67;62.40;94041.19;6189419;23;20365;-88
2023/02/09 08:41:30;;;;;;;13.38;6.15;;;;;;;-4.70;63.51;94041.50;6138750;23;20394;-89
2023/02/09 08:43:55;;;;;;;15.18;5.88;;;;;;;-4.70;62.22;94041.50;6187307;23;20075;-88
2023/02/09 08:46:21;;;;;;;12.30;5.78;;;;;;;-4.55;62.32;94055.25;6162142;23;20423;-88
2023/02/09 08:48:51;;;;;;;13.55;6.38;;;;;;;-4.33;62.33;94084.56;6187412;23;20012;-87
2023/02/09 08:51:17;;;;;;;9.75;5.10;;;;;;;-4.42;62.42;94055.63;6187140;23;20013;-88
2023/02/09 08:53:50;;;;;;;9.90;5.65;;;;;;;-4.01;61.37;94094.06;6161838;23;20070;-90
2023/02/09 08:56:20;;;;;;;12.60;5.80;;;;;;;-4.42;60.57;94032.59;6138855;23;20016;-89
2023/02/09 08:58:46;;;;;;;7.13;4.30;;;;;;;-4.03;61.15;94088.31;6186227;23;20096;-90
2023/02/09 09:01:12;;;;;;;10.13;5.00;;;;;;;-4.22;61.04;94060.47;6161425;23;20088;-89
2023/02/09 09:03:43;;;;;;;13.40;5.75;;;;;;;-4.19;60.05;94060.97;6161854;23;20028;-89
2023/02/09 09:06:13;;;;;;;11.52;5.70;;;;;;;-4.27;60.86;94053.25;6162186;23;20133;-87
2023/02/09 09:08:39;;;;;;;11.68;5.60;;;;;;;-3.89;58.82;94089.44;6186869;23;20028;-88
2023/02/09 09:11:11;;;;;;;12.65;6.25;;;;;;;-4.33;59.56;94055.63;6161527;23;20402;-88
2023/02/09 09:13:49;;;;;;;11.40;5.07;;;;;;;-4.21;60.41;94062.03;6212675;23;20489;-86
2023/02/09 09:16:20;;;;;;;6.95;3.60;;;;;;;-3.90;59.16;94056.34;6186791;23;20008;-87
2023/02/09 09:18:48;;;;;;;8.63;4.63;;;;;;;-4.00;58.59;94064.97;6161532;23;20044;-87
2023/02/09 09:21:17;;;;;;;10.32;5.50;;;;;;;-4.12;59.55;94056.00;6186923;23;20005;-88
2023/02/09 09:23:46;;;;;;;11.98;5.70;;;;;;;-3.70;58.96;94090.88;6190684;23;20051;-88
2023/02/09 09:26:20;;;;;;;10.40;5.50;;;;;;;-3.77;58.63;94074.56;6211311;23;20015;-88
2023/02/09 09:28:50;;;;;;;9.35;4.72;;;;;;;-3.77;59.26;94088.16;6211342;23;20331;-91
2023/02/09 09:31:19;;;;;;;11.93;6.18;;;;;;;-3.51;58.49;94096.66;6212602;23;20013;-88
2023/02/09 09:33:45;;;;;;;10.05;5.20;;;;;;;-3.70;58.92;94075.53;6186726;23;20036;-88
2023/02/09 09:36:11;;;;;;;12.07;6.10;;;;;;;-3.35;59.26;94115.38;6211600;23;20020;-88
2023/02/09 09:38:40;;;;;;;12.20;5.78;;;;;;;-3.48;59.13;94073.31;6211465;23;20327;-87
2023/02/09 09:41:36;;;;;;;9.63;5.32;;;;;;;-2.88;58.49;94131.81;6211274;23;20036;-89
2023/02/09 09:44:11;;;;;;;8.45;4.18;;;;;;;-2.85;56.34;94074.31;6186410;23;20336;-87
2023/02/09 09:46:47;;;;;;;10.93;5.35;;;;;;;-2.53;57.13;94104.94;6186095;23;20447;-88
2023/02/09 09:49:33;;;;;;;11.32;5.85;;;;;;;-2.18;55.78;94082.34;6211520;23;20328;-87
2023/02/09 09:52:17;;;;;;;11.63;5.82;;;;;;;-1.92;54.11;94058.13;6211478;23;20008;-87
2023/02/09 09:54:43;;;;;;;12.43;5.78;;;;;;;-1.25;55.71;94085.69;6186072;23;20016;-87
2023/02/09 09:57:22;;;;;;;12.75;6.25;;;;;;;-0.74;53.87;94077.34;6210764;23;20084;-86
2023/02/09 09:59:48;;;;;;;10.90;6.00;;;;;;;-0.45;51.15;94072.16;6211305;23;20013;-87
2023/02/09 10:02:30;;;;;;;12.32;6.00;;;;;;;0.30;49.52;94093.38;6210875;23;20009;-86
2023/02/09 10:05:12;;;;;;;11.30;6.07;;;;;;;0.33;49.21;94117.97;6212520;23;20016;-86
2023/02/09 10:07:40;;;;;;;14.15;6.43;;;;;;;-0.36;49.52;94088.31;6212711;23;20047;-87
2023/02/09 10:10:22;;;;;;;11.88;5.43;;;;;;;-1.24;52.31;94135.31;6188064;23;20023;-86
2023/02/09 10:12:51;;;;;;;13.80;5.85;;;;;;;-1.49;53.96;94097.78;6213265;23;20108;-86
2023/02/09 10:15:33;;;;;;;15.25;6.80;;;;;;;-0.76;53.19;94123.78;6214504;23;20012;-88
2023/02/09 10:17:59;;;;;;;12.02;5.95;;;;;;;-0.58;50.49;94109.78;6212616;23;20022;-88
2023/02/09 10:20:46;;;;;;;14.32;6.75;;;;;;;-0.65;50.87;94133.66;6163337;23;20012;-86
2023/02/09 10:27:46;;;;;;;12.27;5.22;;;;;;;-1.15;52.21;94140.22;6211109;23;20490;-88
2023/02/09 10:30:27;;;;;;;12.48;5.47;;;;;;;-1.24;52.15;94130.97;6160482;23;20017;-88
2023/02/09 10:32:59;;;;;;;7.63;4.35;;;;;;;-0.72;51.94;94127.63;6187875;23;20020;-88
2023/02/09 10:35:40;;;;;;;11.13;5.55;;;;;;;-0.40;50.58;94137.75;6163218;23;20023;-88
2023/02/09 10:38:15;;;;;;;12.23;5.35;;;;;;;-0.62;50.58;94114.47;6187720;23;20022;-87
2023/02/09 10:40:41;;;;;;;14.13;6.95;;;;;;;-1.20;51.94;94137.34;6162798;23;20008;-88
2023/02/09 10:43:20;;;;;;;16.73;7.03;;;;;;;-1.30;52.51;94134.25;6137425;23;20086;-88
2023/02/09 10:45:53;;;;;;;15.23;7.60;;;;;;;-0.79;52.45;94108.69;6187361;23;20390;-89
2023/02/09 10:48:20;;;;;;;10.30;5.80;;;;;;;-0.12;50.58;94115.50;6162833;23;20339;-89
2023/02/09 10:50:52;;;;;;;10.82;5.82;;;;;;;-0.10;49.17;94115.31;6162851;23;20005;-89
2023/02/09 10:54:01;;;;;;;10.20;5.82;;;;;;;-0.24;49.79;94114.38;6162433;23;20133;-88
2023/02/09 10:56:44;;;;;;;12.80;6.50;;;;;;;-0.48;49.71;94103.38;6162560;23;20257;-88
2023/02/09 10:59:18;;;;;;;13.18;6.32;;;;;;;-0.58;51.89;94114.94;6187309;23;20008;-88
2023/02/09 11:01:52;;;;;;;12.30;6.45;;;;;;;-0.34;50.73;94112.06;6187032;23;20012;-89
2023/02/09 11:04:22;;;;;;;8.00;4.45;;;;;;;0.11;49.75;94099.94;6186750;23;20074;-88
2023/02/09 11:06:56;;;;;;;11.15;5.63;;;;;;;0.37;48.05;94094.22;6187399;23;20013;-88
2023/02/09 11:09:55;;;;;;;12.75;6.72;;;;;;;0.16;50.47;94109.69;6162280;23;20016;-88
2023/02/09 11:12:24;;;;;;;12.15;7.13;;;;;;;0.40;48.97;94099.00;6138831;23;20017;-89
2023/02/09 11:14:49;;;;;;;10.05;5.03;;;;;;;0.75;48.17;94088.81;6214029;23;20032;-88
2023/02/09 11:17:28;;;;;;;12.65;6.75;;;;;;;0.60;48.11;94088.88;6213461;23;20012;-88
2023/02/09 11:20:22;;;;;;;10.10;5.07;;;;;;;0.65;47.54;94092.69;6187048;23;20445;-88
2023/02/09 11:23:12;;;;;;;12.30;6.35;;;;;;;0.26;49.03;94096.50;6186713;23;20024;-89
2023/02/09 11:25:53;;;;;;;18.20;7.30;;;;;;;-0.06;48.82;94095.97;6186794;23;20013;-89
2023/02/09 11:28:37;;;;;;;12.35;6.95;;;;;;;0.08;48.72;94084.81;6175537;23;20016;-88
2023/02/09 11:31:27;;;;;;;8.32;5.20;;;;;;;0.42;48.94;94083.38;6212046;23;20434;-88
2023/02/09 11:33:56;;;;;;;16.92;5.70;;;;;;;-0.07;48.31;94081.50;6212060;23;20015;-89
2023/02/09 11:36:24;;;;;;;11.05;6.00;;;;;;;-0.09;49.50;94092.00;6211773;23;20335;-89
2023/02/09 11:38:58;;;;;;;10.38;5.13;;;;;;;-0.29;49.57;94068.59;6212129;23;20012;-88
2023/02/09 11:44:33;;;;;;;9.93;5.13;;;;;;;0.70;48.46;94067.97;6213364;23;20058;-89
2023/02/09 11:47:07;;;;;;;12.40;7.28;;;;;;;1.33;47.11;94057.66;6212049;23;20070;-88
2023/02/09 11:49:52;;;;;;;14.18;6.90;;;;;;;1.78;45.18;94059.81;6213033;23;20013;-88
2023/02/09 11:52:28;;;;;;;13.48;6.63;;;;;;;2.49;43.70;94051.66;6212063;23;20020;-90
2023/02/09 11:55:00;;;;;;;14.50;7.43;;;;;;;2.78;41.96;94054.84;6213135;23;20087;-89
2023/02/09 11:57:43;;;;;;;18.85;6.93;;;;;;;3.26;42.58;94045.00;6212180;23;20028;-89
2023/02/09 12:00:18;;;;;;;12.63;5.97;;;;;;;2.97;41.99;94027.34;6211487;23;20013;-88
2023/02/09 12:02:58;;;;;;;17.92;7.97;;;;;;;3.39;41.59;94023.50;6213603;23;20008;-88
2023/02/09 12:05:25;;;;;;;12.82;7.35;;;;;;;3.02;41.73;94030.16;6212054;23;20071;-88